UAL1513 KEYW-KEWR
Flight info
| Callsign | UAL1513 |
|---|---|
| Flight time | 2h 42m |
| Altitude | 38000 |
| Route | BUFTT1 MATLK Q87 ZERBO/N0444F390 Q87 ALWZZ OGRAE Q99 QUART PHLBO4 |
| Aircraft | B737/M-SDE2E3FGHIRWXY/LB1 |
Departure
| Time | 2026-04-23 18:44 |
|---|---|
| Airport | Key West International Airport (KEYW) |
Arrival
| Time | 2026-04-23 21:26 |
|---|---|
| Airport | Newark Liberty International Airport (KEWR) |
| Time | Latitude | Longitude | Altitude | Speed | Heading |
|---|---|---|---|---|---|
| 2026-04-23 18:33 | 24.55439 | -81.75460 | 11 ft | 0 kts | 180° |
| 2026-04-23 18:35 | 24.55446 | -81.75460 | 12 ft | 4 kts | 183° |
| 2026-04-23 18:35 | 24.55472 | -81.75454 | 11 ft | 4 kts | 213° |
| 2026-04-23 18:35 | 24.55488 | -81.75434 | 11 ft | 4 kts | 258° |
| 2026-04-23 18:35 | 24.55490 | -81.75425 | 11 ft | 0 kts | 269° |
| 2026-04-23 18:38 | 24.55490 | -81.75431 | 11 ft | 2 kts | 270° |
| 2026-04-23 18:38 | 24.55499 | -81.75448 | 11 ft | 4 kts | 322° |
| 2026-04-23 18:39 | 24.55524 | -81.75469 | 12 ft | 6 kts | 301° |
| 2026-04-23 18:39 | 24.55530 | -81.75521 | 11 ft | 8 kts | 269° |
| 2026-04-23 18:39 | 24.55530 | -81.75594 | 11 ft | 11 kts | 269° |
| 2026-04-23 18:39 | 24.55528 | -81.75687 | 11 ft | 13 kts | 269° |
| 2026-04-23 18:40 | 24.55528 | -81.75801 | 11 ft | 16 kts | 270° |
| 2026-04-23 18:40 | 24.55527 | -81.75932 | 11 ft | 19 kts | 269° |
| 2026-04-23 18:40 | 24.55526 | -81.76083 | 11 ft | 21 kts | 269° |
| 2026-04-23 18:40 | 24.55524 | -81.76244 | 11 ft | 21 kts | 269° |
| 2026-04-23 18:41 | 24.55522 | -81.76402 | 11 ft | 20 kts | 269° |
| 2026-04-23 18:41 | 24.55521 | -81.76532 | 10 ft | 15 kts | 270° |
| 2026-04-23 18:41 | 24.55522 | -81.76623 | 11 ft | 8 kts | 284° |
| 2026-04-23 18:41 | 24.55530 | -81.76637 | 12 ft | 0 kts | 309° |
| 2026-04-23 18:42 | 24.55555 | -81.76655 | 10 ft | 7 kts | 343° |
| 2026-04-23 18:43 | 24.55604 | -81.76655 | 10 ft | 4 kts | 36° |
| 2026-04-23 18:43 | 24.55605 | -81.76642 | 10 ft | 0 kts | 87° |
| 2026-04-23 18:43 | 24.55609 | -81.76414 | 9 ft | 73 kts | 89° |
| 2026-04-23 18:44 | 24.55623 | -81.75553 | 44 ft | 147 kts | 88° |
| 2026-04-23 18:44 | 24.55708 | -81.74394 | 904 ft | 154 kts | 81° |
| 2026-04-23 18:44 | 24.56300 | -81.73463 | 2026 ft | 157 kts | 30° |
| 2026-04-23 18:44 | 24.57456 | -81.73277 | 2703 ft | 185 kts | 5° |
| 2026-04-23 18:45 | 24.58871 | -81.73225 | 3064 ft | 222 kts | 5° |
| 2026-04-23 18:45 | 24.60529 | -81.73135 | 3377 ft | 256 kts | 7° |
| 2026-04-23 18:45 | 24.62388 | -81.72996 | 4079 ft | 272 kts | 7° |
| 2026-04-23 18:45 | 24.64262 | -81.72816 | 5315 ft | 270 kts | 7° |
| 2026-04-23 18:46 | 24.66158 | -81.72600 | 6339 ft | 278 kts | 7° |
| 2026-04-23 18:46 | 24.68092 | -81.72362 | 7359 ft | 280 kts | 7° |
| 2026-04-23 18:46 | 24.70035 | -81.72118 | 8416 ft | 283 kts | 6° |
| 2026-04-23 18:46 | 24.71961 | -81.71648 | 9377 ft | 289 kts | 26° |
| 2026-04-23 18:47 | 24.73571 | -81.70317 | 10330 ft | 295 kts | 44° |
| 2026-04-23 18:47 | 24.75045 | -81.68628 | 10740 ft | 320 kts | 46° |
| 2026-04-23 18:47 | 24.76621 | -81.66736 | 10971 ft | 349 kts | 47° |
| 2026-04-23 18:47 | 24.78296 | -81.64724 | 11577 ft | 360 kts | 45° |
| 2026-04-23 18:48 | 24.79986 | -81.62725 | 12455 ft | 364 kts | 45° |
| 2026-04-23 18:48 | 24.81743 | -81.60668 | 13187 ft | 373 kts | 45° |
| 2026-04-23 18:48 | 24.83538 | -81.58574 | 13964 ft | 380 kts | 45° |
| 2026-04-23 18:48 | 24.85414 | -81.56490 | 14697 ft | 384 kts | 43° |
| 2026-04-23 18:49 | 24.87336 | -81.54428 | 15478 ft | 389 kts | 42° |
| 2026-04-23 18:49 | 24.89296 | -81.52343 | 16235 ft | 393 kts | 42° |
| 2026-04-23 18:49 | 24.91275 | -81.50238 | 17010 ft | 397 kts | 42° |
| 2026-04-23 18:49 | 24.93268 | -81.48110 | 17759 ft | 402 kts | 42° |
| 2026-04-23 18:50 | 24.94629 | -81.46651 | 18242 ft | 406 kts | 42° |
| 2026-04-23 18:50 | 24.97326 | -81.43752 | 19075 ft | 412 kts | 43° |
| 2026-04-23 18:50 | 24.99384 | -81.41533 | 19740 ft | 415 kts | 43° |
| 2026-04-23 18:50 | 25.01450 | -81.39302 | 20403 ft | 418 kts | 43° |
| 2026-04-23 18:51 | 25.03537 | -81.37045 | 21038 ft | 422 kts | 43° |
| 2026-04-23 18:51 | 25.05644 | -81.34767 | 21661 ft | 426 kts | 43° |
| 2026-04-23 18:51 | 25.07767 | -81.32469 | 22273 ft | 430 kts | 43° |
| 2026-04-23 18:51 | 25.09906 | -81.30154 | 22969 ft | 431 kts | 43° |
| 2026-04-23 18:52 | 25.12054 | -81.27828 | 23544 ft | 435 kts | 43° |
| 2026-04-23 18:52 | 25.14222 | -81.25479 | 24012 ft | 439 kts | 43° |
| 2026-04-23 18:52 | 25.16412 | -81.23105 | 24468 ft | 443 kts | 43° |
| 2026-04-23 18:52 | 25.18619 | -81.20711 | 24914 ft | 447 kts | 43° |
| 2026-04-23 18:53 | 25.20849 | -81.18291 | 25334 ft | 452 kts | 43° |
| 2026-04-23 18:53 | 25.23104 | -81.15843 | 25761 ft | 456 kts | 43° |
| 2026-04-23 18:53 | 25.25372 | -81.13378 | 26170 ft | 461 kts | 43° |
| 2026-04-23 18:53 | 25.27670 | -81.10879 | 26577 ft | 465 kts | 43° |
| 2026-04-23 18:54 | 25.29983 | -81.08362 | 26982 ft | 469 kts | 43° |
| 2026-04-23 18:54 | 25.32316 | -81.05823 | 27366 ft | 473 kts | 43° |
| 2026-04-23 18:54 | 25.34672 | -81.03260 | 27755 ft | 476 kts | 42° |
| 2026-04-23 18:54 | 25.37299 | -81.01056 | 28115 ft | 475 kts | 24° |
| 2026-04-23 18:55 | 25.40360 | -80.99754 | 28473 ft | 471 kts | 8° |
| 2026-04-23 18:55 | 25.43595 | -80.99343 | 28866 ft | 467 kts | 358° |
| 2026-04-23 18:55 | 25.46807 | -80.99211 | 29233 ft | 470 kts | 357° |
| 2026-04-23 18:55 | 25.50136 | -80.99126 | 29560 ft | 474 kts | 356° |
| 2026-04-23 18:56 | 25.52327 | -80.99073 | 29772 ft | 477 kts | 356° |
| 2026-04-23 18:56 | 25.56737 | -80.98949 | 30207 ft | 481 kts | 357° |
| 2026-04-23 18:56 | 25.60092 | -80.98833 | 30511 ft | 484 kts | 357° |
| 2026-04-23 18:56 | 25.63465 | -80.98701 | 30846 ft | 485 kts | 357° |
| 2026-04-23 18:57 | 25.66838 | -80.98558 | 31277 ft | 485 kts | 357° |
| 2026-04-23 18:57 | 25.70191 | -80.98410 | 31846 ft | 480 kts | 356° |
| 2026-04-23 18:57 | 25.73517 | -80.98261 | 32412 ft | 476 kts | 356° |
| 2026-04-23 18:57 | 25.76824 | -80.98115 | 32821 ft | 476 kts | 356° |
| 2026-04-23 18:58 | 25.80137 | -80.97972 | 33152 ft | 477 kts | 356° |
| 2026-04-23 18:58 | 25.83457 | -80.97829 | 33522 ft | 477 kts | 356° |
| 2026-04-23 18:58 | 25.86766 | -80.97687 | 33954 ft | 475 kts | 356° |
| 2026-04-23 18:58 | 25.90061 | -80.97544 | 34331 ft | 474 kts | 356° |
| 2026-04-23 18:59 | 25.93355 | -80.97402 | 34685 ft | 472 kts | 356° |
| 2026-04-23 18:59 | 25.96636 | -80.97260 | 35018 ft | 471 kts | 355° |
| 2026-04-23 18:59 | 25.99899 | -80.97118 | 35481 ft | 467 kts | 355° |
| 2026-04-23 18:59 | 26.03122 | -80.96976 | 36001 ft | 461 kts | 355° |
| 2026-04-23 19:00 | 26.06325 | -80.96837 | 36295 ft | 461 kts | 355° |
| 2026-04-23 19:00 | 26.09532 | -80.96701 | 36475 ft | 463 kts | 355° |
| 2026-04-23 19:00 | 26.12754 | -80.96565 | 36675 ft | 464 kts | 355° |
| 2026-04-23 19:00 | 26.15980 | -80.96426 | 36983 ft | 463 kts | 355° |
| 2026-04-23 19:01 | 26.19190 | -80.96286 | 37316 ft | 461 kts | 355° |
| 2026-04-23 19:01 | 26.22389 | -80.96146 | 37605 ft | 460 kts | 355° |
| 2026-04-23 19:01 | 26.25591 | -80.96008 | 37840 ft | 460 kts | 355° |
| 2026-04-23 19:01 | 26.28787 | -80.95869 | 38086 ft | 460 kts | 356° |
| 2026-04-23 19:02 | 26.30899 | -80.95776 | 38083 ft | 459 kts | 356° |
| 2026-04-23 19:02 | 26.38326 | -80.95454 | 38088 ft | 455 kts | 356° |
| 2026-04-23 19:03 | 26.44661 | -80.95082 | 38097 ft | 457 kts | 359° |
| 2026-04-23 19:03 | 26.50972 | -80.94382 | 38089 ft | 460 kts | 360° |
| 2026-04-23 19:04 | 26.57328 | -80.93629 | 38098 ft | 459 kts | 360° |
| 2026-04-23 19:04 | 26.63691 | -80.92910 | 38098 ft | 460 kts | 0° |
| 2026-04-23 19:05 | 26.70062 | -80.92215 | 38090 ft | 460 kts | 0° |
| 2026-04-23 19:05 | 26.76429 | -80.91525 | 38092 ft | 460 kts | 0° |
| 2026-04-23 19:06 | 26.82796 | -80.90833 | 38088 ft | 460 kts | 360° |
| 2026-04-23 19:06 | 26.89156 | -80.90140 | 38133 ft | 459 kts | 0° |
| 2026-04-23 19:07 | 26.95509 | -80.89445 | 38101 ft | 459 kts | 0° |
| 2026-04-23 19:07 | 27.01861 | -80.88750 | 38091 ft | 458 kts | 0° |
| 2026-04-23 19:08 | 27.08195 | -80.88057 | 38095 ft | 457 kts | 0° |
| 2026-04-23 19:08 | 27.14520 | -80.87364 | 38093 ft | 456 kts | 0° |
| 2026-04-23 19:09 | 27.19766 | -80.86788 | 38110 ft | 456 kts | 0° |
| 2026-04-23 19:09 | 27.26078 | -80.86095 | 38094 ft | 455 kts | 0° |
| 2026-04-23 19:10 | 27.32375 | -80.85505 | 38080 ft | 449 kts | 351° |
| 2026-04-23 19:10 | 27.38448 | -80.86572 | 38092 ft | 441 kts | 344° |
| 2026-04-23 19:11 | 27.44476 | -80.87810 | 38100 ft | 441 kts | 344° |
| 2026-04-23 19:11 | 27.50524 | -80.88993 | 38103 ft | 441 kts | 345° |
| 2026-04-23 19:12 | 27.56576 | -80.90143 | 38105 ft | 441 kts | 345° |
| 2026-04-23 19:12 | 27.62633 | -80.91288 | 38103 ft | 442 kts | 345° |
| 2026-04-23 19:13 | 27.68702 | -80.92439 | 38100 ft | 443 kts | 345° |
| 2026-04-23 19:13 | 27.74779 | -80.93593 | 38097 ft | 443 kts | 345° |
| 2026-04-23 19:14 | 27.80867 | -80.94751 | 38115 ft | 444 kts | 345° |
| 2026-04-23 19:14 | 27.86958 | -80.95919 | 38089 ft | 444 kts | 345° |
| 2026-04-23 19:15 | 27.93050 | -80.97106 | 38107 ft | 444 kts | 345° |
| 2026-04-23 19:15 | 27.99130 | -80.98293 | 38108 ft | 443 kts | 345° |
| 2026-04-23 19:16 | 28.05211 | -80.99479 | 38097 ft | 443 kts | 345° |
| 2026-04-23 19:16 | 28.11284 | -81.00664 | 38097 ft | 443 kts | 345° |
| 2026-04-23 19:17 | 28.20375 | -81.02440 | 38105 ft | 441 kts | 345° |
| 2026-04-23 19:17 | 28.26400 | -81.03619 | 38114 ft | 439 kts | 345° |
| 2026-04-23 19:18 | 28.32418 | -81.04798 | 38115 ft | 438 kts | 345° |
| 2026-04-23 19:18 | 28.38336 | -81.06275 | 38126 ft | 431 kts | 335° |
| 2026-04-23 19:19 | 28.46716 | -81.09930 | 38123 ft | 430 kts | 334° |
| 2026-04-23 19:20 | 28.55061 | -81.13584 | 38107 ft | 431 kts | 334° |
| 2026-04-23 19:20 | 28.60667 | -81.16006 | 38106 ft | 432 kts | 334° |
| 2026-04-23 19:21 | 28.69106 | -81.19650 | 38101 ft | 433 kts | 335° |
| 2026-04-23 19:22 | 28.74759 | -81.22095 | 38112 ft | 436 kts | 335° |
| 2026-04-23 19:22 | 28.83297 | -81.25795 | 38118 ft | 439 kts | 335° |
| 2026-04-23 19:23 | 28.89026 | -81.28280 | 38123 ft | 441 kts | 336° |
| 2026-04-23 19:24 | 28.98193 | -81.30069 | 38133 ft | 452 kts | 354° |
| 2026-04-23 19:24 | 29.07653 | -81.30702 | 38113 ft | 455 kts | 353° |
| 2026-04-23 19:25 | 29.20260 | -81.31705 | 38117 ft | 454 kts | 353° |
| 2026-04-23 19:26 | 29.29694 | -81.32453 | 38134 ft | 452 kts | 354° |
| 2026-04-23 19:27 | 29.45363 | -81.33351 | 38138 ft | 449 kts | 355° |
| 2026-04-23 19:28 | 29.57801 | -81.34081 | 38150 ft | 448 kts | 355° |
| 2026-04-23 19:29 | 29.67127 | -81.34635 | 38143 ft | 447 kts | 355° |
| 2026-04-23 19:30 | 29.76439 | -81.35188 | 38148 ft | 446 kts | 355° |
| 2026-04-23 19:31 | 29.85748 | -81.35742 | 38160 ft | 447 kts | 355° |
| 2026-04-23 19:31 | 29.91960 | -81.36113 | 38146 ft | 446 kts | 355° |
| 2026-04-23 19:32 | 29.98155 | -81.36482 | 38144 ft | 446 kts | 355° |
| 2026-04-23 19:32 | 30.03303 | -81.36790 | 38147 ft | 445 kts | 355° |
| 2026-04-23 19:33 | 30.09674 | -81.37171 | 38145 ft | 445 kts | 355° |
| 2026-04-23 19:33 | 30.18823 | -81.37713 | 38137 ft | 444 kts | 355° |
| 2026-04-23 19:34 | 30.24986 | -81.38072 | 38127 ft | 443 kts | 355° |
| 2026-04-23 19:35 | 30.34245 | -81.38614 | 38137 ft | 442 kts | 355° |
| 2026-04-23 19:35 | 30.40334 | -81.38973 | 38137 ft | 441 kts | 355° |
| 2026-04-23 19:36 | 30.46463 | -81.39332 | 38142 ft | 440 kts | 356° |
| 2026-04-23 19:36 | 30.52587 | -81.39669 | 38141 ft | 441 kts | 356° |
| 2026-04-23 19:37 | 30.58710 | -81.39994 | 38134 ft | 441 kts | 355° |
| 2026-04-23 19:37 | 30.64844 | -81.40321 | 38139 ft | 441 kts | 355° |
| 2026-04-23 19:38 | 30.70983 | -81.40652 | 38147 ft | 441 kts | 355° |
| 2026-04-23 19:38 | 30.77125 | -81.40982 | 38133 ft | 442 kts | 356° |
| 2026-04-23 19:39 | 30.83265 | -81.41317 | 38128 ft | 442 kts | 356° |
| 2026-04-23 19:39 | 30.89401 | -81.41651 | 38127 ft | 441 kts | 356° |
| 2026-04-23 19:40 | 30.95537 | -81.41985 | 38117 ft | 441 kts | 356° |
| 2026-04-23 19:40 | 31.01662 | -81.42318 | 38121 ft | 441 kts | 356° |
| 2026-04-23 19:41 | 31.07797 | -81.42649 | 38125 ft | 441 kts | 356° |
| 2026-04-23 19:41 | 31.13871 | -81.42981 | 38117 ft | 440 kts | 356° |
| 2026-04-23 19:42 | 31.19990 | -81.43315 | 38103 ft | 440 kts | 356° |
| 2026-04-23 19:42 | 31.26083 | -81.42746 | 38140 ft | 441 kts | 12° |
| 2026-04-23 19:43 | 31.31811 | -81.40185 | 38137 ft | 442 kts | 24° |
| 2026-04-23 19:43 | 31.37368 | -81.37080 | 38125 ft | 442 kts | 24° |
| 2026-04-23 19:44 | 31.42914 | -81.34002 | 38112 ft | 441 kts | 24° |
| 2026-04-23 19:44 | 31.48475 | -81.30964 | 38114 ft | 440 kts | 23° |
| 2026-04-23 19:45 | 31.54016 | -81.27947 | 38119 ft | 440 kts | 23° |
| 2026-04-23 19:45 | 31.59582 | -81.24911 | 38103 ft | 440 kts | 24° |
| 2026-04-23 19:46 | 31.65131 | -81.21880 | 38106 ft | 440 kts | 23° |
| 2026-04-23 19:46 | 31.70650 | -81.18863 | 38089 ft | 440 kts | 23° |
| 2026-04-23 19:47 | 31.75298 | -81.16318 | 38092 ft | 440 kts | 23° |
| 2026-04-23 19:47 | 31.81741 | -81.12787 | 38080 ft | 440 kts | 23° |
| 2026-04-23 19:48 | 31.87286 | -81.09742 | 38073 ft | 439 kts | 24° |
| 2026-04-23 19:48 | 31.91923 | -81.07192 | 38076 ft | 439 kts | 23° |
| 2026-04-23 19:49 | 31.97413 | -81.04172 | 38067 ft | 438 kts | 24° |
| 2026-04-23 19:49 | 32.02921 | -81.01127 | 38094 ft | 438 kts | 24° |
| 2026-04-23 19:50 | 32.08430 | -80.98046 | 38080 ft | 438 kts | 24° |
| 2026-04-23 19:50 | 32.13933 | -80.94959 | 38079 ft | 438 kts | 24° |
| 2026-04-23 19:51 | 32.19447 | -80.91866 | 38120 ft | 438 kts | 24° |
| 2026-04-23 19:51 | 32.24960 | -80.88770 | 38118 ft | 439 kts | 24° |
| 2026-04-23 19:52 | 32.30466 | -80.85675 | 38138 ft | 439 kts | 24° |
| 2026-04-23 19:52 | 32.35977 | -80.82573 | 38100 ft | 439 kts | 24° |
| 2026-04-23 19:53 | 32.41508 | -80.79456 | 38103 ft | 439 kts | 24° |
| 2026-04-23 19:53 | 32.47014 | -80.76348 | 38102 ft | 439 kts | 24° |
| 2026-04-23 19:54 | 32.52527 | -80.73232 | 38101 ft | 439 kts | 24° |
| 2026-04-23 19:54 | 32.58017 | -80.70124 | 38110 ft | 438 kts | 24° |
| 2026-04-23 19:55 | 32.63531 | -80.66999 | 38102 ft | 438 kts | 24° |
| 2026-04-23 19:55 | 32.69029 | -80.63878 | 38087 ft | 438 kts | 24° |
| 2026-04-23 19:56 | 32.74511 | -80.60722 | 38084 ft | 438 kts | 24° |
| 2026-04-23 19:56 | 32.79954 | -80.57486 | 38085 ft | 438 kts | 25° |
| 2026-04-23 19:57 | 32.85348 | -80.54266 | 38079 ft | 437 kts | 25° |
| 2026-04-23 19:57 | 32.90798 | -80.51019 | 38074 ft | 437 kts | 24° |
| 2026-04-23 19:58 | 32.96233 | -80.47783 | 38073 ft | 437 kts | 24° |
| 2026-04-23 19:58 | 33.01670 | -80.44543 | 38066 ft | 437 kts | 24° |
| 2026-04-23 19:59 | 33.07103 | -80.41301 | 38057 ft | 437 kts | 24° |
| 2026-04-23 19:59 | 33.12542 | -80.38050 | 38053 ft | 437 kts | 24° |
| 2026-04-23 20:00 | 33.17983 | -80.34793 | 38048 ft | 437 kts | 24° |
| 2026-04-23 20:00 | 33.23407 | -80.31542 | 38056 ft | 437 kts | 24° |
| 2026-04-23 20:01 | 33.28844 | -80.28279 | 38059 ft | 437 kts | 24° |
| 2026-04-23 20:01 | 33.34288 | -80.25007 | 38061 ft | 437 kts | 24° |
| 2026-04-23 20:02 | 33.39736 | -80.21728 | 38064 ft | 438 kts | 24° |
| 2026-04-23 20:02 | 33.45169 | -80.18453 | 38064 ft | 437 kts | 24° |
| 2026-04-23 20:03 | 33.50597 | -80.15177 | 38067 ft | 438 kts | 24° |
| 2026-04-23 20:03 | 33.56000 | -80.11910 | 38074 ft | 438 kts | 24° |
| 2026-04-23 20:04 | 33.61478 | -80.08594 | 38062 ft | 438 kts | 24° |
| 2026-04-23 20:04 | 33.66885 | -80.05317 | 38060 ft | 438 kts | 24° |
| 2026-04-23 20:05 | 33.72317 | -80.02019 | 38047 ft | 438 kts | 24° |
| 2026-04-23 20:05 | 33.77753 | -79.98714 | 38051 ft | 438 kts | 24° |
| 2026-04-23 20:06 | 33.83186 | -79.95405 | 38058 ft | 438 kts | 24° |
| 2026-04-23 20:06 | 33.88613 | -79.92095 | 38048 ft | 437 kts | 24° |
| 2026-04-23 20:07 | 33.94041 | -79.88780 | 38041 ft | 437 kts | 24° |
| 2026-04-23 20:07 | 33.99451 | -79.85470 | 38041 ft | 437 kts | 24° |
| 2026-04-23 20:08 | 34.04860 | -79.82157 | 38038 ft | 436 kts | 24° |
| 2026-04-23 20:08 | 34.10283 | -79.78829 | 38053 ft | 436 kts | 24° |
| 2026-04-23 20:09 | 34.15688 | -79.75509 | 38041 ft | 436 kts | 24° |
| 2026-04-23 20:09 | 34.21097 | -79.72177 | 38037 ft | 436 kts | 24° |
| 2026-04-23 20:10 | 34.25581 | -79.69406 | 38038 ft | 436 kts | 24° |
| 2026-04-23 20:10 | 34.31902 | -79.65494 | 38043 ft | 436 kts | 24° |
| 2026-04-23 20:11 | 34.37260 | -79.62176 | 38036 ft | 436 kts | 24° |
| 2026-04-23 20:11 | 34.42671 | -79.58822 | 38038 ft | 436 kts | 24° |
| 2026-04-23 20:12 | 34.48069 | -79.55472 | 38035 ft | 436 kts | 24° |
| 2026-04-23 20:12 | 34.53466 | -79.52119 | 38032 ft | 436 kts | 24° |
| 2026-04-23 20:13 | 34.58833 | -79.48651 | 38038 ft | 437 kts | 26° |
| 2026-04-23 20:13 | 34.64141 | -79.45023 | 38028 ft | 437 kts | 26° |
| 2026-04-23 20:14 | 34.69506 | -79.41574 | 38024 ft | 435 kts | 19° |
| 2026-04-23 20:14 | 34.75317 | -79.39745 | 38037 ft | 431 kts | 8° |
| 2026-04-23 20:15 | 34.81230 | -79.38552 | 38032 ft | 431 kts | 7° |
| 2026-04-23 20:15 | 34.87140 | -79.37352 | 38025 ft | 431 kts | 7° |
| 2026-04-23 20:16 | 34.93057 | -79.36109 | 38020 ft | 431 kts | 8° |
| 2026-04-23 20:16 | 34.98961 | -79.34848 | 37998 ft | 431 kts | 8° |
| 2026-04-23 20:17 | 35.04860 | -79.33583 | 38005 ft | 431 kts | 8° |
| 2026-04-23 20:17 | 35.10767 | -79.32315 | 37994 ft | 431 kts | 8° |
| 2026-04-23 20:18 | 35.16679 | -79.31045 | 38038 ft | 431 kts | 8° |
| 2026-04-23 20:18 | 35.22579 | -79.29776 | 38038 ft | 431 kts | 8° |
| 2026-04-23 20:19 | 35.28488 | -79.28502 | 38049 ft | 431 kts | 8° |
| 2026-04-23 20:19 | 35.34393 | -79.27228 | 38038 ft | 431 kts | 8° |
| 2026-04-23 20:20 | 35.40256 | -79.25961 | 38032 ft | 431 kts | 8° |
| 2026-04-23 20:20 | 35.46165 | -79.24682 | 38031 ft | 431 kts | 8° |
| 2026-04-23 20:21 | 35.52065 | -79.23403 | 38023 ft | 431 kts | 8° |
| 2026-04-23 20:21 | 35.57978 | -79.22120 | 38008 ft | 431 kts | 8° |
| 2026-04-23 20:22 | 35.63845 | -79.20844 | 38007 ft | 431 kts | 8° |
| 2026-04-23 20:22 | 35.69787 | -79.19550 | 38016 ft | 431 kts | 8° |
| 2026-04-23 20:23 | 35.75518 | -79.17418 | 38027 ft | 434 kts | 23° |
| 2026-04-23 20:23 | 35.80654 | -79.13426 | 38020 ft | 438 kts | 33° |
| 2026-04-23 20:24 | 35.85590 | -79.09040 | 38021 ft | 438 kts | 33° |
| 2026-04-23 20:24 | 35.90543 | -79.04658 | 38031 ft | 438 kts | 33° |
| 2026-04-23 20:25 | 35.95496 | -79.00316 | 38020 ft | 438 kts | 33° |
| 2026-04-23 20:25 | 36.00451 | -78.95986 | 38022 ft | 437 kts | 32° |
| 2026-04-23 20:26 | 36.05432 | -78.91629 | 38014 ft | 436 kts | 33° |
| 2026-04-23 20:26 | 36.10362 | -78.87308 | 38012 ft | 435 kts | 33° |
| 2026-04-23 20:27 | 36.15308 | -78.82965 | 38010 ft | 434 kts | 33° |
| 2026-04-23 20:27 | 36.20226 | -78.78639 | 38013 ft | 434 kts | 33° |
| 2026-04-23 20:28 | 36.25102 | -78.74345 | 38002 ft | 433 kts | 32° |
| 2026-04-23 20:28 | 36.30047 | -78.69983 | 37989 ft | 432 kts | 32° |
| 2026-04-23 20:29 | 36.34904 | -78.65690 | 38004 ft | 432 kts | 32° |
| 2026-04-23 20:29 | 36.39796 | -78.61361 | 37983 ft | 431 kts | 32° |
| 2026-04-23 20:30 | 36.44682 | -78.57036 | 37993 ft | 430 kts | 31° |
| 2026-04-23 20:30 | 36.52230 | -78.51052 | 38002 ft | 428 kts | 28° |
| 2026-04-23 20:31 | 36.57291 | -78.47158 | 37994 ft | 428 kts | 28° |
| 2026-04-23 20:31 | 36.62312 | -78.43246 | 37993 ft | 428 kts | 29° |
| 2026-04-23 20:32 | 36.67378 | -78.39271 | 37996 ft | 428 kts | 28° |
| 2026-04-23 20:32 | 36.72419 | -78.35305 | 37993 ft | 429 kts | 28° |
| 2026-04-23 20:33 | 36.77469 | -78.31325 | 37988 ft | 430 kts | 28° |
| 2026-04-23 20:33 | 36.82537 | -78.27326 | 37993 ft | 430 kts | 29° |
| 2026-04-23 20:34 | 36.87603 | -78.23323 | 37988 ft | 431 kts | 29° |
| 2026-04-23 20:34 | 36.92655 | -78.19323 | 37980 ft | 432 kts | 28° |
| 2026-04-23 20:35 | 36.97733 | -78.15298 | 37976 ft | 432 kts | 28° |
| 2026-04-23 20:35 | 37.02803 | -78.11263 | 37975 ft | 433 kts | 28° |
| 2026-04-23 20:36 | 37.07895 | -78.07198 | 37973 ft | 433 kts | 28° |
| 2026-04-23 20:36 | 37.12979 | -78.03132 | 37982 ft | 433 kts | 28° |
| 2026-04-23 20:37 | 37.18067 | -77.99058 | 37971 ft | 434 kts | 28° |
| 2026-04-23 20:37 | 37.23152 | -77.94980 | 37994 ft | 434 kts | 28° |
| 2026-04-23 20:38 | 37.27372 | -77.91590 | 37983 ft | 433 kts | 28° |
| 2026-04-23 20:38 | 37.33258 | -77.86853 | 37993 ft | 433 kts | 28° |
| 2026-04-23 20:39 | 37.37514 | -77.83424 | 37988 ft | 432 kts | 28° |
| 2026-04-23 20:39 | 37.42572 | -77.79359 | 37984 ft | 432 kts | 28° |
| 2026-04-23 20:40 | 37.47641 | -77.75314 | 37987 ft | 431 kts | 28° |
| 2026-04-23 20:40 | 37.52695 | -77.71267 | 37991 ft | 431 kts | 28° |
| 2026-04-23 20:41 | 37.57748 | -77.67186 | 37994 ft | 431 kts | 28° |
| 2026-04-23 20:41 | 37.62784 | -77.63101 | 37986 ft | 431 kts | 28° |
| 2026-04-23 20:42 | 37.67830 | -77.59005 | 38005 ft | 431 kts | 27° |
| 2026-04-23 20:42 | 37.72875 | -77.54905 | 37985 ft | 431 kts | 27° |
| 2026-04-23 20:43 | 37.77911 | -77.50813 | 37979 ft | 430 kts | 27° |
| 2026-04-23 20:43 | 37.82894 | -77.46765 | 37982 ft | 430 kts | 27° |
| 2026-04-23 20:44 | 37.87897 | -77.42690 | 37976 ft | 430 kts | 27° |
| 2026-04-23 20:44 | 37.92959 | -77.38560 | 37981 ft | 429 kts | 27° |
| 2026-04-23 20:45 | 37.97971 | -77.34465 | 37987 ft | 429 kts | 27° |
| 2026-04-23 20:45 | 38.02979 | -77.30370 | 37966 ft | 429 kts | 27° |
| 2026-04-23 20:46 | 38.07997 | -77.26266 | 37959 ft | 429 kts | 27° |
| 2026-04-23 20:46 | 38.13014 | -77.22153 | 37970 ft | 429 kts | 27° |
| 2026-04-23 20:47 | 38.18036 | -77.18028 | 37948 ft | 429 kts | 27° |
| 2026-04-23 20:47 | 38.22993 | -77.13948 | 37954 ft | 429 kts | 27° |
| 2026-04-23 20:48 | 38.28065 | -77.09770 | 37982 ft | 428 kts | 27° |
| 2026-04-23 20:48 | 38.32956 | -77.05399 | 37967 ft | 431 kts | 31° |
| 2026-04-23 20:49 | 38.37706 | -77.00748 | 37965 ft | 430 kts | 32° |
| 2026-04-23 20:49 | 38.42450 | -76.96105 | 37970 ft | 430 kts | 31° |
| 2026-04-23 20:50 | 38.47205 | -76.91496 | 37974 ft | 429 kts | 31° |
| 2026-04-23 20:50 | 38.51956 | -76.86905 | 37974 ft | 429 kts | 31° |
| 2026-04-23 20:51 | 38.56717 | -76.82299 | 37978 ft | 429 kts | 31° |
| 2026-04-23 20:51 | 38.61469 | -76.77690 | 37986 ft | 429 kts | 30° |
| 2026-04-23 20:52 | 38.66219 | -76.73076 | 37974 ft | 429 kts | 31° |
| 2026-04-23 20:52 | 38.70967 | -76.68455 | 37957 ft | 428 kts | 31° |
| 2026-04-23 20:53 | 38.75705 | -76.63838 | 37955 ft | 428 kts | 31° |
| 2026-04-23 20:53 | 38.80435 | -76.59221 | 37973 ft | 427 kts | 31° |
| 2026-04-23 20:54 | 38.85165 | -76.54595 | 37961 ft | 427 kts | 31° |
| 2026-04-23 20:54 | 38.89888 | -76.49967 | 38004 ft | 427 kts | 30° |
| 2026-04-23 20:55 | 38.94610 | -76.45332 | 37983 ft | 427 kts | 30° |
| 2026-04-23 20:55 | 38.99323 | -76.40698 | 37960 ft | 427 kts | 30° |
| 2026-04-23 20:56 | 39.04008 | -76.36006 | 37970 ft | 429 kts | 33° |
| 2026-04-23 20:56 | 39.08433 | -76.30879 | 37974 ft | 432 kts | 36° |
| 2026-04-23 20:57 | 39.12837 | -76.25623 | 37967 ft | 431 kts | 35° |
| 2026-04-23 20:57 | 39.17263 | -76.20415 | 37969 ft | 431 kts | 35° |
| 2026-04-23 20:58 | 39.21707 | -76.15217 | 37958 ft | 431 kts | 35° |
| 2026-04-23 20:58 | 39.26151 | -76.10012 | 37971 ft | 432 kts | 34° |
| 2026-04-23 20:59 | 39.30599 | -76.04789 | 37969 ft | 432 kts | 34° |
| 2026-04-23 20:59 | 39.35040 | -75.99566 | 37971 ft | 431 kts | 34° |
| 2026-04-23 21:00 | 39.39476 | -75.94338 | 37952 ft | 431 kts | 34° |
| 2026-04-23 21:00 | 39.43905 | -75.89108 | 37963 ft | 431 kts | 34° |
| 2026-04-23 21:01 | 39.48331 | -75.83872 | 37959 ft | 431 kts | 34° |
| 2026-04-23 21:01 | 39.52762 | -75.78622 | 37951 ft | 431 kts | 34° |
| 2026-04-23 21:02 | 39.57184 | -75.73370 | 37951 ft | 432 kts | 34° |
| 2026-04-23 21:02 | 39.61614 | -75.68102 | 37946 ft | 432 kts | 34° |
| 2026-04-23 21:03 | 39.66030 | -75.62841 | 37943 ft | 431 kts | 34° |
| 2026-04-23 21:03 | 39.70418 | -75.57592 | 37949 ft | 432 kts | 34° |
| 2026-04-23 21:04 | 39.74822 | -75.52288 | 37941 ft | 432 kts | 34° |
| 2026-04-23 21:04 | 39.79222 | -75.46976 | 37947 ft | 432 kts | 34° |
| 2026-04-23 21:05 | 39.83624 | -75.41656 | 37968 ft | 432 kts | 34° |
| 2026-04-23 21:05 | 39.88020 | -75.36333 | 37937 ft | 432 kts | 34° |
| 2026-04-23 21:06 | 39.92414 | -75.31004 | 37922 ft | 431 kts | 34° |
| 2026-04-23 21:06 | 39.96795 | -75.25681 | 37963 ft | 430 kts | 33° |
| 2026-04-23 21:07 | 40.01159 | -75.20366 | 37865 ft | 422 kts | 33° |
| 2026-04-23 21:07 | 40.03280 | -75.17770 | 37156 ft | 416 kts | 33° |
| 2026-04-23 21:07 | 40.05397 | -75.15192 | 36096 ft | 418 kts | 33° |
| 2026-04-23 21:08 | 40.07538 | -75.12587 | 34945 ft | 423 kts | 34° |
| 2026-04-23 21:08 | 40.09698 | -75.09954 | 33775 ft | 427 kts | 34° |
| 2026-04-23 21:08 | 40.11870 | -75.07297 | 32673 ft | 426 kts | 35° |
| 2026-04-23 21:08 | 40.14006 | -75.04671 | 31968 ft | 417 kts | 35° |
| 2026-04-23 21:09 | 40.16084 | -75.02113 | 31524 ft | 402 kts | 34° |
| 2026-04-23 21:09 | 40.18062 | -74.99674 | 31393 ft | 380 kts | 34° |
| 2026-04-23 21:09 | 40.19934 | -74.97370 | 31252 ft | 361 kts | 33° |
| 2026-04-23 21:09 | 40.21744 | -74.95153 | 30848 ft | 352 kts | 33° |
| 2026-04-23 21:10 | 40.23524 | -74.92976 | 30251 ft | 349 kts | 33° |
| 2026-04-23 21:10 | 40.25292 | -74.90806 | 29579 ft | 347 kts | 34° |
| 2026-04-23 21:10 | 40.26989 | -74.88552 | 28851 ft | 348 kts | 37° |
| 2026-04-23 21:10 | 40.28635 | -74.86221 | 28095 ft | 348 kts | 38° |
| 2026-04-23 21:11 | 40.30269 | -74.83875 | 27366 ft | 347 kts | 37° |
| 2026-04-23 21:11 | 40.31902 | -74.81555 | 26681 ft | 345 kts | 37° |
| 2026-04-23 21:11 | 40.33532 | -74.79256 | 26002 ft | 344 kts | 37° |
| 2026-04-23 21:11 | 40.35159 | -74.76971 | 25365 ft | 342 kts | 36° |
| 2026-04-23 21:12 | 40.36783 | -74.74689 | 24726 ft | 341 kts | 36° |
| 2026-04-23 21:12 | 40.38399 | -74.72416 | 24080 ft | 341 kts | 36° |
| 2026-04-23 21:12 | 40.40014 | -74.70141 | 23441 ft | 341 kts | 37° |
| 2026-04-23 21:12 | 40.41668 | -74.67952 | 22720 ft | 329 kts | 26° |
| 2026-04-23 21:13 | 40.43604 | -74.66592 | 22077 ft | 306 kts | 8° |
| 2026-04-23 21:13 | 40.45629 | -74.65938 | 21487 ft | 296 kts | 2° |
| 2026-04-23 21:13 | 40.47643 | -74.65423 | 20852 ft | 294 kts | 2° |
| 2026-04-23 21:13 | 40.49644 | -74.64927 | 20248 ft | 291 kts | 2° |
| 2026-04-23 21:14 | 40.51626 | -74.64427 | 19641 ft | 289 kts | 2° |
| 2026-04-23 21:14 | 40.53591 | -74.63919 | 19066 ft | 287 kts | 2° |
| 2026-04-23 21:14 | 40.55533 | -74.63405 | 18531 ft | 283 kts | 3° |
| 2026-04-23 21:14 | 40.57457 | -74.62892 | 17935 ft | 281 kts | 3° |
| 2026-04-23 21:15 | 40.59339 | -74.62389 | 17308 ft | 279 kts | 3° |
| 2026-04-23 21:15 | 40.61233 | -74.61882 | 16677 ft | 277 kts | 3° |
| 2026-04-23 21:15 | 40.63115 | -74.61377 | 16073 ft | 275 kts | 4° |
| 2026-04-23 21:15 | 40.64978 | -74.60877 | 15482 ft | 272 kts | 4° |
| 2026-04-23 21:16 | 40.66830 | -74.60380 | 14894 ft | 270 kts | 4° |
| 2026-04-23 21:16 | 40.68663 | -74.59888 | 14307 ft | 268 kts | 4° |
| 2026-04-23 21:16 | 40.70489 | -74.59397 | 13748 ft | 267 kts | 5° |
| 2026-04-23 21:16 | 40.72296 | -74.58905 | 13165 ft | 264 kts | 7° |
| 2026-04-23 21:17 | 40.73977 | -74.57825 | 12546 ft | 280 kts | 33° |
| 2026-04-23 21:17 | 40.75155 | -74.55736 | 12050 ft | 294 kts | 58° |
| 2026-04-23 21:17 | 40.75572 | -74.53037 | 11419 ft | 311 kts | 85° |
| 2026-04-23 21:17 | 40.75090 | -74.50220 | 10824 ft | 322 kts | 112° |
| 2026-04-23 21:18 | 40.73766 | -74.47849 | 10277 ft | 323 kts | 139° |
| 2026-04-23 21:18 | 40.71874 | -74.46328 | 9752 ft | 317 kts | 159° |
| 2026-04-23 21:18 | 40.69843 | -74.45254 | 9209 ft | 312 kts | 162° |
| 2026-04-23 21:18 | 40.67818 | -74.44263 | 8714 ft | 307 kts | 162° |
| 2026-04-23 21:19 | 40.65831 | -74.43310 | 8264 ft | 301 kts | 162° |
| 2026-04-23 21:19 | 40.63874 | -74.42388 | 7785 ft | 296 kts | 162° |
| 2026-04-23 21:19 | 40.61946 | -74.41493 | 7329 ft | 291 kts | 162° |
| 2026-04-23 21:19 | 40.60050 | -74.40611 | 6883 ft | 287 kts | 162° |
| 2026-04-23 21:20 | 40.58179 | -74.39741 | 6427 ft | 282 kts | 162° |
| 2026-04-23 21:20 | 40.56352 | -74.38897 | 5995 ft | 277 kts | 162° |
| 2026-04-23 21:20 | 40.54539 | -74.38064 | 5446 ft | 276 kts | 162° |
| 2026-04-23 21:20 | 40.52732 | -74.37238 | 4953 ft | 273 kts | 163° |
| 2026-04-23 21:21 | 40.51008 | -74.36238 | 4455 ft | 273 kts | 145° |
| 2026-04-23 21:21 | 40.49782 | -74.34366 | 4134 ft | 272 kts | 115° |
| 2026-04-23 21:21 | 40.49115 | -74.32093 | 4006 ft | 259 kts | 101° |
| 2026-04-23 21:21 | 40.49230 | -74.29858 | 3902 ft | 240 kts | 62° |
| 2026-04-23 21:22 | 40.50282 | -74.28276 | 3699 ft | 229 kts | 24° |
| 2026-04-23 21:22 | 40.51768 | -74.27554 | 3435 ft | 231 kts | 17° |
| 2026-04-23 21:22 | 40.53235 | -74.26715 | 3147 ft | 229 kts | 21° |
| 2026-04-23 21:22 | 40.54676 | -74.25791 | 2838 ft | 232 kts | 22° |
| 2026-04-23 21:23 | 40.56125 | -74.24857 | 2500 ft | 233 kts | 22° |
| 2026-04-23 21:23 | 40.57567 | -74.23936 | 2205 ft | 227 kts | 22° |
| 2026-04-23 21:23 | 40.58949 | -74.23051 | 1921 ft | 216 kts | 22° |
| 2026-04-23 21:23 | 40.60266 | -74.22209 | 1657 ft | 206 kts | 23° |
| 2026-04-23 21:24 | 40.61530 | -74.21403 | 1393 ft | 198 kts | 23° |
| 2026-04-23 21:24 | 40.62738 | -74.20630 | 1154 ft | 188 kts | 22° |
| 2026-04-23 21:24 | 40.63885 | -74.19899 | 904 ft | 179 kts | 22° |
| 2026-04-23 21:24 | 40.64965 | -74.19205 | 720 ft | 167 kts | 21° |
| 2026-04-23 21:25 | 40.65989 | -74.18541 | 449 ft | 159 kts | 19° |
| 2026-04-23 21:25 | 40.66937 | -74.17938 | 339 ft | 141 kts | 17° |
| 2026-04-23 21:25 | 40.67514 | -74.17568 | 175 ft | 132 kts | 17° |
| 2026-04-23 21:25 | 40.68530 | -74.16938 | 20 ft | 102 kts | 25° |
| 2026-04-23 21:26 | 40.68899 | -74.16697 | 21 ft | 73 kts | 25° |
| 2026-04-23 21:26 | 40.69136 | -74.16587 | 24 ft | 23 kts | 1° |
| 2026-04-23 21:26 | 40.69293 | -74.16594 | 22 ft | 22 kts | 354° |
| 2026-04-23 21:26 | 40.69420 | -74.16678 | 23 ft | 22 kts | 299° |
| 2026-04-23 21:27 | 40.69486 | -74.16854 | 21 ft | 21 kts | 296° |
| 2026-04-23 21:27 | 40.69484 | -74.16987 | 21 ft | 16 kts | 212° |
| 2026-04-23 21:27 | 40.69388 | -74.17049 | 22 ft | 15 kts | 205° |
| 2026-04-23 21:27 | 40.69295 | -74.17108 | 21 ft | 14 kts | 206° |
| 2026-04-23 21:28 | 40.69205 | -74.17165 | 21 ft | 14 kts | 206° |
| 2026-04-23 21:28 | 40.69121 | -74.17218 | 21 ft | 13 kts | 206° |
| 2026-04-23 21:28 | 40.69040 | -74.17270 | 22 ft | 13 kts | 206° |
| 2026-04-23 21:28 | 40.68961 | -74.17321 | 21 ft | 12 kts | 206° |
| 2026-04-23 21:29 | 40.68884 | -74.17370 | 21 ft | 12 kts | 206° |
| 2026-04-23 21:29 | 40.68802 | -74.17422 | 21 ft | 14 kts | 206° |
| 2026-04-23 21:29 | 40.68706 | -74.17483 | 21 ft | 16 kts | 205° |
| 2026-04-23 21:29 | 40.68611 | -74.17559 | 22 ft | 15 kts | 246° |
| 2026-04-23 21:30 | 40.68641 | -74.17685 | 21 ft | 14 kts | 294° |
| 2026-04-23 21:30 | 40.68673 | -74.17807 | 21 ft | 14 kts | 284° |
| 2026-04-23 21:30 | 40.68678 | -74.17922 | 22 ft | 13 kts | 223° |
| 2026-04-23 21:30 | 40.68598 | -74.17979 | 21 ft | 13 kts | 211° |
| 2026-04-23 21:31 | 40.68574 | -74.18085 | 21 ft | 12 kts | 264° |
| 2026-04-23 21:31 | 40.68512 | -74.18157 | 21 ft | 12 kts | 216° |
| 2026-04-23 21:31 | 40.68470 | -74.18197 | 21 ft | 6 kts | 184° |
| 2026-04-23 21:31 | 40.68433 | -74.18225 | 21 ft | 6 kts | 214° |
| 2026-04-23 21:32 | 40.68421 | -74.18236 | 22 ft | 0 kts | 214° |